Time;durP1;ratioP1;P1;durP2;ratioP2;P2;SDS_P1;SDS_P2;PMS_P1;PMS_P2;Temp;Humidity;BMP_temperature;BMP_pressure;BME280_temperature;BME280_humidity;BME280_pressure;Samples;Min_cycle;Max_cycle;Signal;HPM_P1;HPM_P2
2022/01/30 00:01:53;;;;;;;;;;;;;;;;;;7390005;19;2299;-43
2022/01/30 00:04:20;;;;;;;;;;;;;;;;;;7389859;19;2122;-42
2022/01/30 00:06:48;;;;;;;;;;;;;;;;;;7389167;19;2475;-49
2022/01/30 00:09:20;;;;;;;;;;;;;;;;;;7389618;19;2397;-42
2022/01/30 00:11:54;;;;;;;;;;;;;;;;;;7392197;19;2197;-46
2022/01/30 00:14:23;;;;;;;;;;;;;;;;;;7390518;19;2314;-43
2022/01/30 00:16:58;;;;;;;;;;;;;;;;;;7389154;19;2240;-45
2022/01/30 00:19:38;;;;;;;;;;;;;;;;;;7390061;19;2216;-46
2022/01/30 00:24:50;;;;;;;;;;;;;;;;;;7389726;19;2227;-48
2022/01/30 00:27:26;;;;;;;;;;;;;;;;;;7388035;19;2342;-46
2022/01/30 00:29:54;;;;;;;;;;;;;;;;;;7389225;19;2228;-44
2022/01/30 00:32:21;;;;;;;;;;;;;;;;;;7389424;19;2295;-45
2022/01/30 00:35:09;;;;;;;;;;;;;;;;;;7388447;19;2334;-45
2022/01/30 00:37:41;;;;;;;;;;;;;;;;;;7389806;19;2145;-48
2022/01/30 00:40:28;;;;;;;;;;;;;;;;;;7389364;19;2242;-51
2022/01/30 00:42:56;;;;;;;;;;;;;;;;;;7388049;19;2212;-52
2022/01/30 00:45:24;;;;;;;;;;;;;;;;;;7389203;19;2178;-51
2022/01/30 00:47:51;;;;;;;;;;;;;;;;;;7391098;19;2351;-48
2022/01/30 00:50:18;;;;;;;;;;;;;;;;;;7394535;19;1460;-48
2022/01/30 00:52:50;;;;;;;;;;;;;;;;;;7394606;19;2322;-44
2022/01/30 00:55:17;;;;;;;;;;;;;;;;;;7395261;19;2233;-42
2022/01/30 00:57:44;;;;;;;;;;;;;;;;;;7395870;19;2446;-45
2022/01/30 01:00:12;;;;;;;;;;;;;;;;;;7398872;19;2230;-46
2022/01/30 01:02:39;;;;;;;;;;;;;;;;;;7396273;19;2248;-49
2022/01/30 01:05:08;;;;;;;;;;;;;;;;;;7395910;19;2178;-47
2022/01/30 01:07:38;;;;;;;;;;;;;;;;;;7391681;19;2174;-48
2022/01/30 01:10:11;;;;;;;;;;;;;;;;;;7394870;19;2171;-44
2022/01/30 01:23:44;;;;;;;;;;;;;;;;;;7394658;19;2214;-43
2022/01/30 01:26:12;;;;;;;;;;;;;;;;;;7393351;19;2194;-49
2022/01/30 01:28:39;;;;;;;;;;;;;;;;;;7396067;19;1966;-51
2022/01/30 01:31:07;;;;;;;;;;;;;;;;;;7395415;19;2350;-43
2022/01/30 01:34:08;;;;;;;;;;;;;;;;;;7394974;19;2108;-42
2022/01/30 01:36:23;;;;;;;;;;;;;;;;;;7394763;19;2104;-44
2022/01/30 01:38:53;;;;;;;;;;;;;;;;;;7392638;19;2047;-46
2022/01/30 01:41:22;;;;;;;;;;;;;;;;;;7395437;19;2348;-50
2022/01/30 01:43:49;;;;;;;;;;;;;;;;;;7392903;19;2202;-47
2022/01/30 01:46:23;;;;;;;;;;;;;;;;;;7394039;19;2329;-48
2022/01/30 01:48:53;;;;;;;;;;;;;;;;;;7392043;19;2356;-48
2022/01/30 01:51:21;;;;;;;;;;;;;;;;;;7392248;19;2219;-46
2022/01/30 01:53:50;;;;;;;;;;;;;;;;;;7393106;19;1901;-46
2022/01/30 01:56:17;;;;;;;;;;;;;;;;;;7394203;19;1593;-44
2022/01/30 01:58:52;;;;;;;;;;;;;;;;;;7389114;19;2210;-46
2022/01/30 02:01:51;;;;;;;;;;;;;;;;;;7393940;19;2269;-43
2022/01/30 02:04:20;;;;;;;;;;;;;;;;;;7392161;19;2297;-46
2022/01/30 02:06:58;;;;;;;;;;;;;;;;;;7391097;19;2283;-47
2022/01/30 02:09:29;;;;;;;;;;;;;;;;;;7394459;19;2331;-43
2022/01/30 02:11:57;;;;;;;;;;;;;;;;;;7394938;19;2369;-44
2022/01/30 02:15:04;;;;;;;;;;;;;;;;;;7393688;19;2187;-45
2022/01/30 02:27:59;;;;;;;;;;;;;;;;;;7389616;19;2279;-47
2022/01/30 02:30:33;;;;;;;;;;;;;;;;;;7391026;19;1958;-44
2022/01/30 02:33:00;;;;;;;;;;;;;;;;;;7390527;19;2306;-48
2022/01/30 02:35:28;;;;;;;;;;;;;;;;;;7393104;19;2188;-46
2022/01/30 02:37:58;;;;;;;;;;;;;;;;;;7392846;19;2201;-44
2022/01/30 02:40:26;;;;;;;;;;;;;;;;;;7392796;19;2233;-44
2022/01/30 02:42:54;;;;;;;;;;;;;;;;;;7390918;19;2319;-48
2022/01/30 02:45:25;;;;;;;;;;;;;;;;;;7390703;19;2239;-48
2022/01/30 02:47:58;;;;;;;;;;;;;;;;;;7390649;19;2350;-50
2022/01/30 02:53:29;;;;;;;;;;;;;;;;;;7388705;19;2244;-43
2022/01/30 02:55:57;;;;;;;;;;;;;;;;;;7391907;19;2051;-48
2022/01/30 02:58:24;;;;;;;;;;;;;;;;;;7389948;19;1959;-45
2022/01/30 03:00:52;;;;;;;;;;;;;;;;;;7392164;19;2111;-43
2022/01/30 03:03:19;;;;;;;;;;;;;;;;;;7390456;19;2193;-44
2022/01/30 03:05:47;;;;;;;;;;;;;;;;;;7392734;19;2251;-42
2022/01/30 03:08:15;;;;;;;;;;;;;;;;;;7388206;19;2142;-43
2022/01/30 03:10:42;;;;;;;;;;;;;;;;;;7392247;19;1945;-44
2022/01/30 03:13:09;;;;;;;;;;;;;;;;;;7390044;19;2263;-46
2022/01/30 03:15:37;;;;;;;;;;;;;;;;;;7390500;19;2135;-48
2022/01/30 03:18:04;;;;;;;;;;;;;;;;;;7390332;19;2296;-43
2022/01/30 03:20:31;;;;;;;;;;;;;;;;;;7390066;19;2331;-46
2022/01/30 03:23:01;;;;;;;;;;;;;;;;;;7390806;19;2356;-45
2022/01/30 03:25:32;;;;;;;;;;;;;;;;;;7389509;19;1748;-44
2022/01/30 03:28:17;;;;;;;;;;;;;;;;;;7389210;19;2269;-42
2022/01/30 03:30:53;;;;;;;;;;;;;;;;;;7389136;19;1953;-44
2022/01/30 03:33:30;;;;;;;;;;;;;;;;;;7391433;19;2214;-44
2022/01/30 03:35:57;;;;;;;;;;;;;;;;;;7390605;19;2470;-47
2022/01/30 03:38:25;;;;;;;;;;;;;;;;;;7391118;19;2015;-43
2022/01/30 03:40:52;;;;;;;;;;;;;;;;;;7388813;19;2104;-46
2022/01/30 03:43:20;;;;;;;;;;;;;;;;;;7387724;19;1512;-45
2022/01/30 03:45:48;;;;;;;;;;;;;;;;;;7389165;19;2274;-45
2022/01/30 03:48:15;;;;;;;;;;;;;;;;;;7387439;19;2462;-49
2022/01/30 03:51:09;;;;;;;;;;;;;;;;;;7389752;19;2108;-49
2022/01/30 03:53:36;;;;;;;;;;;;;;;;;;7389143;19;2205;-43
2022/01/30 03:56:05;;;;;;;;;;;;;;;;;;7388738;19;2085;-49
2022/01/30 03:58:33;;;;;;;;;;;;;;;;;;7390268;19;2352;-43
2022/01/30 04:01:13;;;;;;;;;;;;;;;;;;7388514;19;2163;-43
2022/01/30 04:03:41;;;;;;;;;;;;;;;;;;7391140;19;2382;-45
2022/01/30 04:06:09;;;;;;;;;;;;;;;;;;7390018;19;2072;-43
2022/01/30 04:08:38;;;;;;;;;;;;;;;;;;7387208;19;2368;-47
2022/01/30 04:11:18;;;;;;;;;;;;;;;;;;7389894;19;2326;-45
2022/01/30 04:13:56;;;;;;;;;;;;;;;;;;7388573;19;2266;-44
2022/01/30 04:16:43;;;;;;;;;;;;;;;;;;7387866;19;2258;-42
2022/01/30 04:19:43;;;;;;;;;;;;;;;;;;7388914;19;1961;-46
2022/01/30 04:22:22;;;;;;;;;;;;;;;;;;7386124;19;2349;-50
2022/01/30 04:25:09;;;;;;;;;;;;;;;;;;7388458;19;2309;-44
2022/01/30 04:27:56;;;;;;;;;;;;;;;;;;7388204;19;2410;-45
2022/01/30 04:30:38;;;;;;;;;;;;;;;;;;7387773;19;2198;-42
2022/01/30 04:33:22;;;;;;;;;;;;;;;;;;7387863;19;2268;-44
2022/01/30 04:36:04;;;;;;;;;;;;;;;;;;7388822;19;2182;-43
2022/01/30 04:42:24;;;;;;;;;;;;;;;;;;7384779;19;2347;-46
2022/01/30 05:06:00;;;;;;;;;;;;;;;;;;7386838;19;2222;-50
2022/01/30 05:08:34;;;;;;;;;;;;;;;;;;7384736;19;2261;-47
2022/01/30 05:11:33;;;;;;;;;;;;;;;;;;7389654;19;2083;-43
2022/01/30 05:14:33;;;;;;;;;;;;;;;;;;7386650;19;1399;-46
2022/01/30 05:17:18;;;;;;;;;;;;;;;;;;7388263;19;2322;-51
2022/01/30 05:20:02;;;;;;;;;;;;;;;;;;7386276;19;2339;-48
2022/01/30 05:22:50;;;;;;;;;;;;;;;;;;7386114;19;1901;-45
2022/01/30 05:25:45;;;;;;;;;;;;;;;;;;7386487;19;1484;-46
2022/01/30 05:28:16;;;;;;;;;;;;;;;;;;7385078;19;2302;-48
2022/01/30 05:31:09;;;;;;;;;;;;;;;;;;7386540;19;1934;-43
2022/01/30 05:34:07;;;;;;;;;;;;;;;;;;7391293;19;2085;-42
2022/01/30 05:36:50;;;;;;;;;;;;;;;;;;7394019;19;1596;-44
2022/01/30 05:39:36;;;;;;;;;;;;;;;;;;7395032;19;2280;-42
2022/01/30 05:42:37;;;;;;;;;;;;;;;;;;7392041;19;2001;-44
2022/01/30 05:48:17;;;;;;;;;;;;;;;;;;7391847;19;2281;-50
2022/01/30 05:51:11;;;;;;;;;;;;;;;;;;7392593;19;1391;-44
2022/01/30 05:54:04;;;;;;;;;;;;;;;;;;7392491;19;2340;-45
2022/01/30 05:56:37;;;;;;;;;;;;;;;;;;7392126;19;1655;-43
2022/01/30 05:59:14;;;;;;;;;;;;;;;;;;7394241;19;2259;-43
2022/01/30 06:02:12;;;;;;;;;;;;;;;;;;7393457;19;2370;-42
2022/01/30 06:04:40;;;;;;;;;;;;;;;;;;7393649;19;2349;-42
2022/01/30 06:07:09;;;;;;;;;;;;;;;;;;7394310;19;1980;-44
2022/01/30 06:09:37;;;;;;;;;;;;;;;;;;7391860;19;1753;-43
2022/01/30 06:12:05;;;;;;;;;;;;;;;;;;7396164;19;2268;-44
2022/01/30 06:14:34;;;;;;;;;;;;;;;;;;7391876;19;2424;-47
2022/01/30 06:17:13;;;;;;;;;;;;;;;;;;7392271;19;2252;-41
2022/01/30 06:19:55;;;;;;;;;;;;;;;;;;7393874;19;2197;-43
2022/01/30 06:22:38;;;;;;;;;;;;;;;;;;7393043;19;2385;-44
2022/01/30 06:25:27;;;;;;;;;;;;;;;;;;7393802;19;2297;-42
2022/01/30 06:28:00;;;;;;;;;;;;;;;;;;7392144;19;2223;-43
2022/01/30 06:30:47;;;;;;;;;;;;;;;;;;7392771;19;2305;-45
2022/01/30 06:33:41;;;;;;;;;;;;;;;;;;7391274;19;2053;-46
2022/01/30 06:36:28;;;;;;;;;;;;;;;;;;7392422;19;2010;-42
2022/01/30 06:39:18;;;;;;;;;;;;;;;;;;7391510;19;2282;-44
2022/01/30 06:42:02;;;;;;;;;;;;;;;;;;7391327;19;2527;-42
2022/01/30 06:44:48;;;;;;;;;;;;;;;;;;7391143;19;2216;-42
2022/01/30 06:47:41;;;;;;;;;;;;;;;;;;7392799;19;2297;-50
2022/01/30 06:50:26;;;;;;;;;;;;;;;;;;7392704;19;2239;-45
2022/01/30 06:53:09;;;;;;;;;;;;;;;;;;7392804;19;2020;-46
2022/01/30 06:55:42;;;;;;;;;;;;;;;;;;7393120;19;1689;-46
2022/01/30 06:58:27;;;;;;;;;;;;;;;;;;7392360;19;2265;-43
2022/01/30 07:01:13;;;;;;;;;;;;;;;;;;7392481;19;2224;-43
2022/01/30 07:04:11;;;;;;;;;;;;;;;;;;7388343;19;2123;-46
2022/01/30 07:06:57;;;;;;;;;;;;;;;;;;7391673;19;2203;-43
2022/01/30 07:09:25;;;;;;;;;;;;;;;;;;7389962;19;2376;-44
2022/01/30 07:11:52;;;;;;;;;;;;;;;;;;7394164;19;2287;-46
2022/01/30 07:14:19;;;;;;;;;;;;;;;;;;7391398;19;2350;-45
2022/01/30 07:16:46;;;;;;;;;;;;;;;;;;7392172;19;2129;-45
2022/01/30 07:19:13;;;;;;;;;;;;;;;;;;7389759;19;2291;-45
2022/01/30 07:21:41;;;;;;;;;;;;;;;;;;7391412;19;2331;-45
2022/01/30 07:24:08;;;;;;;;;;;;;;;;;;7391941;19;2043;-44
2022/01/30 07:26:35;;;;;;;;;;;;;;;;;;7391155;19;2270;-51
2022/01/30 07:29:04;;;;;;;;;;;;;;;;;;7389801;19;2154;-43
2022/01/30 07:31:32;;;;;;;;;;;;;;;;;;7391272;19;2265;-46
2022/01/30 07:33:59;;;;;;;;;;;;;;;;;;7391390;19;2049;-49
2022/01/30 07:36:27;;;;;;;;;;;;;;;;;;7390697;19;2406;-43
2022/01/30 07:38:55;;;;;;;;;;;;;;;;;;7390539;19;2246;-45
2022/01/30 07:41:22;;;;;;;;;;;;;;;;;;7391107;19;2281;-45
2022/01/30 07:43:49;;;;;;;;;;;;;;;;;;7389841;19;1401;-45
2022/01/30 07:46:19;;;;;;;;;;;;;;;;;;7388726;19;1980;-57
2022/01/30 07:48:46;;;;;;;;;;;;;;;;;;7389808;19;1891;-42
2022/01/30 07:51:14;;;;;;;;;;;;;;;;;;7390357;19;2397;-47
2022/01/30 07:53:42;;;;;;;;;;;;;;;;;;7391450;19;1928;-43
2022/01/30 07:56:09;;;;;;;;;;;;;;;;;;7390269;19;2200;-43
2022/01/30 07:58:36;;;;;;;;;;;;;;;;;;7390254;19;2562;-44
2022/01/30 08:01:03;;;;;;;;;;;;;;;;;;7390336;19;2287;-46
2022/01/30 08:03:31;;;;;;;;;;;;;;;;;;7389440;19;2276;-44
2022/01/30 08:05:58;;;;;;;;;;;;;;;;;;7389482;19;2134;-43
2022/01/30 08:08:25;;;;;;;;;;;;;;;;;;7388812;19;1850;-44
2022/01/30 08:10:53;;;;;;;;;;;;;;;;;;7390998;19;2230;-43
2022/01/30 08:13:20;;;;;;;;;;;;;;;;;;7389868;19;2337;-43
2022/01/30 08:15:47;;;;;;;;;;;;;;;;;;7390360;19;1717;-46
2022/01/30 08:18:14;;;;;;;;;;;;;;;;;;7389716;19;1922;-44
2022/01/30 08:20:42;;;;;;;;;;;;;;;;;;7387109;19;2314;-47
2022/01/30 08:23:15;;;;;;;;;;;;;;;;;;7387807;19;2252;-44
2022/01/30 08:25:42;;;;;;;;;;;;;;;;;;7390072;19;2279;-43
2022/01/30 08:28:10;;;;;;;;;;;;;;;;;;7388574;19;2344;-46
2022/01/30 08:30:37;;;;;;;;;;;;;;;;;;7389177;19;2162;-46
2022/01/30 08:33:04;;;;;;;;;;;;;;;;;;7389296;19;2258;-42
2022/01/30 08:35:31;;;;;;;;;;;;;;;;;;7389091;19;1838;-44
2022/01/30 08:37:59;;;;;;;;;;;;;;;;;;7389066;19;2337;-48
2022/01/30 08:40:26;;;;;;;;;;;;;;;;;;7388803;19;2287;-46
2022/01/30 08:42:54;;;;;;;;;;;;;;;;;;7387864;19;2319;-47
2022/01/30 08:45:22;;;;;;;;;;;;;;;;;;7389066;19;1730;-49
2022/01/30 08:47:50;;;;;;;;;;;;;;;;;;7388309;19;2290;-43
2022/01/30 08:50:19;;;;;;;;;;;;;;;;;;7388666;19;2222;-43
2022/01/30 08:52:46;;;;;;;;;;;;;;;;;;7389276;19;2036;-45
2022/01/30 08:55:14;;;;;;;;;;;;;;;;;;7389979;19;2201;-49
2022/01/30 08:57:42;;;;;;;;;;;;;;;;;;7389157;19;2129;-49
2022/01/30 09:00:13;;;;;;;;;;;;;;;;;;7388980;19;1983;-48
2022/01/30 09:02:40;;;;;;;;;;;;;;;;;;7387560;19;1840;-50
2022/01/30 09:05:08;;;;;;;;;;;;;;;;;;7388153;19;2241;-49
2022/01/30 09:07:38;;;;;;;;;;;;;;;;;;7390430;19;2376;-50
2022/01/30 09:10:07;;;;;;;;;;;;;;;;;;7396363;19;2294;-46
2022/01/30 09:12:34;;;;;;;;;;;;;;;;;;7400640;19;2214;-54
2022/01/30 09:15:05;;;;;;;;;;;;;;;;;;7395183;19;2232;-44
2022/01/30 09:17:32;;;;;;;;;;;;;;;;;;7395477;19;2282;-47
2022/01/30 09:20:00;;;;;;;;;;;;;;;;;;7395232;19;1916;-46
2022/01/30 09:22:27;;;;;;;;;;;;;;;;;;7395535;19;2289;-47
2022/01/30 09:24:54;;;;;;;;;;;;;;;;;;7399307;19;2236;-43
2022/01/30 09:27:21;;;;;;;;;;;;;;;;;;7395077;19;2118;-44
2022/01/30 09:29:49;;;;;;;;;;;;;;;;;;7393303;19;1908;-45
2022/01/30 09:32:17;;;;;;;;;;;;;;;;;;7394960;19;2246;-45
2022/01/30 09:34:44;;;;;;;;;;;;;;;;;;7394871;19;2004;-47
2022/01/30 09:37:11;;;;;;;;;;;;;;;;;;7395102;19;1978;-45
2022/01/30 09:39:39;;;;;;;;;;;;;;;;;;7395378;19;2150;-47
2022/01/30 09:42:06;;;;;;;;;;;;;;;;;;7393965;19;2138;-46
2022/01/30 09:44:39;;;;;;;;;;;;;;;;;;7392438;19;2085;-48
2022/01/30 09:47:17;;;;;;;;;;;;;;;;;;7394413;19;2315;-46
2022/01/30 09:49:47;;;;;;;;;;;;;;;;;;7393546;19;2321;-43
2022/01/30 09:52:15;;;;;;;;;;;;;;;;;;7394941;19;2198;-43
2022/01/30 09:54:42;;;;;;;;;;;;;;;;;;7394011;19;2132;-51
2022/01/30 09:57:09;;;;;;;;;;;;;;;;;;7393890;19;2292;-43
2022/01/30 09:59:38;;;;;;;;;;;;;;;;;;7394517;19;2320;-49
2022/01/30 10:02:05;;;;;;;;;;;;;;;;;;7393696;19;2191;-50
2022/01/30 10:04:33;;;;;;;;;;;;;;;;;;7394022;19;2193;-46
2022/01/30 10:07:04;;;;;;;;;;;;;;;;;;7393769;19;2377;-46
2022/01/30 10:09:34;;;;;;;;;;;;;;;;;;7392741;19;2331;-50
2022/01/30 10:12:16;;;;;;;;;;;;;;;;;;7397207;19;2021;-48
2022/01/30 10:14:53;;;;;;;;;;;;;;;;;;7394525;19;2140;-46
2022/01/30 10:17:40;;;;;;;;;;;;;;;;;;7393479;19;2338;-43
2022/01/30 10:20:27;;;;;;;;;;;;;;;;;;7390975;19;2346;-43
2022/01/30 10:22:55;;;;;;;;;;;;;;;;;;7393496;19;1962;-43
2022/01/30 10:25:29;;;;;;;;;;;;;;;;;;7393537;19;2362;-49
2022/01/30 10:28:17;;;;;;;;;;;;;;;;;;7393118;19;2227;-46
2022/01/30 10:30:44;;;;;;;;;;;;;;;;;;7393421;19;2357;-49
2022/01/30 10:33:13;;;;;;;;;;;;;;;;;;7392224;19;2435;-50
2022/01/30 10:35:53;;;;;;;;;;;;;;;;;;7393130;19;1926;-43
2022/01/30 10:38:28;;;;;;;;;;;;;;;;;;7392696;19;1491;-44
2022/01/30 10:40:56;;;;;;;;;;;;;;;;;;7392528;19;2231;-43
2022/01/30 10:43:43;;;;;;;;;;;;;;;;;;7392255;19;2011;-46
2022/01/30 10:46:25;;;;;;;;;;;;;;;;;;7393079;19;2376;-42
2022/01/30 10:48:58;;;;;;;;;;;;;;;;;;7392133;19;2213;-43
2022/01/30 10:51:27;;;;;;;;;;;;;;;;;;7392952;19;1730;-42
2022/01/30 10:53:56;;;;;;;;;;;;;;;;;;7392455;19;2217;-43
2022/01/30 10:56:26;;;;;;;;;;;;;;;;;;7392398;19;2251;-45
2022/01/30 10:59:04;;;;;;;;;;;;;;;;;;7392002;19;1974;-47
2022/01/30 11:01:31;;;;;;;;;;;;;;;;;;7394314;19;2230;-44
2022/01/30 11:04:01;;;;;;;;;;;;;;;;;;7390850;19;2328;-43
2022/01/30 11:06:28;;;;;;;;;;;;;;;;;;7391553;19;2184;-49
2022/01/30 11:09:12;;;;;;;;;;;;;;;;;;7391681;19;2401;-43
2022/01/30 11:11:51;;;;;;;;;;;;;;;;;;7392848;19;2317;-43
2022/01/30 11:14:23;;;;;;;;;;;;;;;;;;7391522;19;2356;-44
2022/01/30 11:17:07;;;;;;;;;;;;;;;;;;7395036;19;2195;-48
2022/01/30 11:19:39;;;;;;;;;;;;;;;;;;7391182;19;2309;-47
2022/01/30 11:22:08;;;;;;;;;;;;;;;;;;7391459;19;2325;-43
2022/01/30 11:24:46;;;;;;;;;;;;;;;;;;7391660;19;2302;-44
2022/01/30 11:27:14;;;;;;;;;;;;;;;;;;7391344;19;2335;-49
2022/01/30 11:29:41;;;;;;;;;;;;;;;;;;7389231;19;2426;-43
2022/01/30 11:32:09;;;;;;;;;;;;;;;;;;7391524;19;2296;-44
2022/01/30 11:34:37;;;;;;;;;;;;;;;;;;7391539;19;2276;-48
2022/01/30 11:37:05;;;;;;;;;;;;;;;;;;7390546;19;1700;-52
2022/01/30 11:39:33;;;;;;;;;;;;;;;;;;7390723;19;2205;-49
2022/01/30 11:42:09;;;;;;;;;;;;;;;;;;7391194;19;2204;-43
2022/01/30 11:44:38;;;;;;;;;;;;;;;;;;7388805;19;2333;-46
2022/01/30 11:47:07;;;;;;;;;;;;;;;;;;7390226;19;2248;-45
2022/01/30 11:49:43;;;;;;;;;;;;;;;;;;7389461;19;1967;-45
2022/01/30 11:52:11;;;;;;;;;;;;;;;;;;7390639;19;1911;-44
2022/01/30 11:54:41;;;;;;;;;;;;;;;;;;7390593;19;2021;-45
2022/01/30 11:57:20;;;;;;;;;;;;;;;;;;7390253;19;2297;-43
2022/01/30 11:59:48;;;;;;;;;;;;;;;;;;7390581;19;2264;-43
2022/01/30 12:02:30;;;;;;;;;;;;;;;;;;7390026;19;2184;-43
2022/01/30 12:04:59;;;;;;;;;;;;;;;;;;7390289;19;2302;-44
2022/01/30 12:07:39;;;;;;;;;;;;;;;;;;7390188;19;2093;-42
2022/01/30 12:10:16;;;;;;;;;;;;;;;;;;7388584;19;2204;-45
2022/01/30 12:12:52;;;;;;;;;;;;;;;;;;7389245;19;2254;-49
2022/01/30 12:15:39;;;;;;;;;;;;;;;;;;7390473;19;2275;-43
2022/01/30 12:18:10;;;;;;;;;;;;;;;;;;7389378;19;2567;-43
2022/01/30 12:20:56;;;;;;;;;;;;;;;;;;7389058;19;2316;-46
2022/01/30 12:23:24;;;;;;;;;;;;;;;;;;7389316;19;2238;-45
2022/01/30 12:25:58;;;;;;;;;;;;;;;;;;7389778;19;2300;-44
2022/01/30 12:28:39;;;;;;;;;;;;;;;;;;7389020;19;2358;-47
2022/01/30 12:31:24;;;;;;;;;;;;;;;;;;7388862;19;2296;-45
2022/01/30 12:34:04;;;;;;;;;;;;;;;;;;7387207;19;2015;-44
2022/01/30 12:36:35;;;;;;;;;;;;;;;;;;7388777;19;2315;-44
2022/01/30 12:39:02;;;;;;;;;;;;;;;;;;7389173;19;2245;-46
2022/01/30 12:41:30;;;;;;;;;;;;;;;;;;7388864;19;2165;-49
2022/01/30 12:44:08;;;;;;;;;;;;;;;;;;7392242;19;1415;-42
2022/01/30 12:46:35;;;;;;;;;;;;;;;;;;7397536;19;2023;-45
2022/01/30 12:49:07;;;;;;;;;;;;;;;;;;7395763;19;1980;-43
2022/01/30 12:51:36;;;;;;;;;;;;;;;;;;7396541;19;2095;-55
2022/01/30 12:54:04;;;;;;;;;;;;;;;;;;7396060;19;2223;-41
2022/01/30 12:56:31;;;;;;;;;;;;;;;;;;7396563;19;2329;-52
2022/01/30 12:59:06;;;;;;;;;;;;;;;;;;7399135;19;1968;-45
2022/01/30 13:01:34;;;;;;;;;;;;;;;;;;7396116;19;2401;-47
2022/01/30 13:04:09;;;;;;;;;;;;;;;;;;7396462;19;2234;-46
2022/01/30 13:06:44;;;;;;;;;;;;;;;;;;7395768;19;2110;-47
2022/01/30 13:09:16;;;;;;;;;;;;;;;;;;7395217;19;2241;-42
2022/01/30 13:11:43;;;;;;;;;;;;;;;;;;7398670;19;2262;-48
2022/01/30 13:14:10;;;;;;;;;;;;;;;;;;7395629;19;2199;-44
2022/01/30 13:16:48;;;;;;;;;;;;;;;;;;7395804;19;1964;-45
2022/01/30 13:19:34;;;;;;;;;;;;;;;;;;7396326;19;2161;-43
2022/01/30 13:22:03;;;;;;;;;;;;;;;;;;7395298;19;2252;-44
2022/01/30 13:24:31;;;;;;;;;;;;;;;;;;7394988;19;1930;-43
2022/01/30 13:27:02;;;;;;;;;;;;;;;;;;7395185;19;2291;-50
2022/01/30 13:29:33;;;;;;;;;;;;;;;;;;7393689;19;2336;-46
2022/01/30 13:32:06;;;;;;;;;;;;;;;;;;7395115;19;2263;-47
2022/01/30 13:34:33;;;;;;;;;;;;;;;;;;7399031;19;2272;-49
2022/01/30 13:37:05;;;;;;;;;;;;;;;;;;7394794;19;2253;-43
2022/01/30 13:39:34;;;;;;;;;;;;;;;;;;7394963;19;2253;-47
2022/01/30 13:47:55;;;;;;;;;;;;;;;;;;7394668;19;2330;-44
2022/01/30 13:50:31;;;;;;;;;;;;;;;;;;7393255;19;2052;-41
2022/01/30 13:53:01;;;;;;;;;;;;;;;;;;7394133;19;2063;-43
2022/01/30 13:55:29;;;;;;;;;;;;;;;;;;7393636;19;2328;-42
2022/01/30 13:57:57;;;;;;;;;;;;;;;;;;7394049;19;1952;-42
2022/01/30 14:00:27;;;;;;;;;;;;;;;;;;7394015;19;2097;-42
2022/01/30 14:02:56;;;;;;;;;;;;;;;;;;7394216;19;2381;-43
2022/01/30 14:05:30;;;;;;;;;;;;;;;;;;7393261;19;1903;-42
2022/01/30 14:07:58;;;;;;;;;;;;;;;;;;7393475;19;2194;-44
2022/01/30 14:10:32;;;;;;;;;;;;;;;;;;7392395;19;2304;-51
2022/01/30 14:13:17;;;;;;;;;;;;;;;;;;7392112;19;1957;-46
2022/01/30 14:15:45;;;;;;;;;;;;;;;;;;7393344;19;1647;-46
2022/01/30 14:18:15;;;;;;;;;;;;;;;;;;7394016;19;2292;-52
2022/01/30 14:20:47;;;;;;;;;;;;;;;;;;7392993;19;2255;-48
2022/01/30 14:23:20;;;;;;;;;;;;;;;;;;7393500;19;2222;-43
2022/01/30 14:25:48;;;;;;;;;;;;;;;;;;7392869;19;2433;-43
2022/01/30 14:28:19;;;;;;;;;;;;;;;;;;7393620;19;2219;-43
2022/01/30 14:30:47;;;;;;;;;;;;;;;;;;7391016;19;2433;-48
2022/01/30 14:33:14;;;;;;;;;;;;;;;;;;7392963;19;2028;-43
2022/01/30 14:35:42;;;;;;;;;;;;;;;;;;7393000;19;1873;-47
2022/01/30 14:38:09;;;;;;;;;;;;;;;;;;7393068;19;1672;-42
2022/01/30 14:40:37;;;;;;;;;;;;;;;;;;7393341;19;1982;-42
2022/01/30 14:43:05;;;;;;;;;;;;;;;;;;7392434;19;2072;-44
2022/01/30 14:45:33;;;;;;;;;;;;;;;;;;7393338;19;2237;-42
2022/01/30 14:48:00;;;;;;;;;;;;;;;;;;7392552;19;2399;-43
2022/01/30 14:50:28;;;;;;;;;;;;;;;;;;7391693;19;2406;-45
2022/01/30 14:52:55;;;;;;;;;;;;;;;;;;7392814;19;1817;-44
2022/01/30 14:55:22;;;;;;;;;;;;;;;;;;7392263;19;2231;-46
2022/01/30 14:57:51;;;;;;;;;;;;;;;;;;7392311;19;2250;-42
2022/01/30 15:00:18;;;;;;;;;;;;;;;;;;7391833;19;2411;-45
2022/01/30 15:02:46;;;;;;;;;;;;;;;;;;7392360;19;2327;-42
2022/01/30 15:05:14;;;;;;;;;;;;;;;;;;7390188;19;1899;-49
2022/01/30 15:07:42;;;;;;;;;;;;;;;;;;7389114;19;2310;-44
2022/01/30 15:10:12;;;;;;;;;;;;;;;;;;7387507;19;2250;-49
2022/01/30 15:12:41;;;;;;;;;;;;;;;;;;7395517;19;2009;-46
2022/01/30 15:15:10;;;;;;;;;;;;;;;;;;7391336;19;2253;-45
2022/01/30 15:17:39;;;;;;;;;;;;;;;;;;7391442;19;2244;-52
2022/01/30 15:20:13;;;;;;;;;;;;;;;;;;7391001;19;1982;-42
2022/01/30 15:22:41;;;;;;;;;;;;;;;;;;7391527;19;2303;-44
2022/01/30 15:25:09;;;;;;;;;;;;;;;;;;7391378;19;2262;-43
2022/01/30 15:27:37;;;;;;;;;;;;;;;;;;7391700;19;2209;-47
2022/01/30 15:30:05;;;;;;;;;;;;;;;;;;7389625;19;2194;-43
2022/01/30 15:32:35;;;;;;;;;;;;;;;;;;7391656;19;2327;-46
2022/01/30 15:35:05;;;;;;;;;;;;;;;;;;7391669;19;2270;-42
2022/01/30 15:37:33;;;;;;;;;;;;;;;;;;7391414;19;2267;-43
2022/01/30 15:40:00;;;;;;;;;;;;;;;;;;7391524;19;2273;-47
2022/01/30 15:42:28;;;;;;;;;;;;;;;;;;7390794;19;2345;-42
2022/01/30 15:50:09;;;;;;;;;;;;;;;;;;7390494;19;2316;-43
2022/01/30 15:52:36;;;;;;;;;;;;;;;;;;7390396;19;2198;-48
2022/01/30 15:55:04;;;;;;;;;;;;;;;;;;7390365;19;2202;-43
2022/01/30 15:57:31;;;;;;;;;;;;;;;;;;7390680;19;2098;-48
2022/01/30 15:59:59;;;;;;;;;;;;;;;;;;7390715;19;2283;-44
2022/01/30 16:02:26;;;;;;;;;;;;;;;;;;7388611;19;1765;-45
2022/01/30 16:04:54;;;;;;;;;;;;;;;;;;7390346;19;2300;-43
2022/01/30 16:07:23;;;;;;;;;;;;;;;;;;7389887;19;2348;-44
2022/01/30 16:09:52;;;;;;;;;;;;;;;;;;7389272;19;2333;-46
2022/01/30 16:17:49;;;;;;;;;;;;;;;;;;7387354;19;2274;-43
2022/01/30 16:20:17;;;;;;;;;;;;;;;;;;7389579;19;2245;-42
2022/01/30 16:22:44;;;;;;;;;;;;;;;;;;7390112;19;2176;-45
2022/01/30 16:25:11;;;;;;;;;;;;;;;;;;7389218;19;2344;-44
2022/01/30 16:27:39;;;;;;;;;;;;;;;;;;7389674;19;2355;-45
2022/01/30 16:30:07;;;;;;;;;;;;;;;;;;7388865;19;1890;-43
2022/01/30 16:32:37;;;;;;;;;;;;;;;;;;7389378;19;2001;-46
2022/01/30 16:35:11;;;;;;;;;;;;;;;;;;7389616;19;1893;-45
2022/01/30 16:37:40;;;;;;;;;;;;;;;;;;7389010;19;2312;-44
2022/01/30 16:40:08;;;;;;;;;;;;;;;;;;7389279;19;2471;-52
2022/01/30 16:42:37;;;;;;;;;;;;;;;;;;7389247;19;1831;-47
2022/01/30 16:45:16;;;;;;;;;;;;;;;;;;7389307;19;1944;-43
2022/01/30 16:47:54;;;;;;;;;;;;;;;;;;7387443;19;1880;-49
2022/01/30 16:50:23;;;;;;;;;;;;;;;;;;7388048;19;2278;-49
2022/01/30 16:52:51;;;;;;;;;;;;;;;;;;7389332;19;2410;-45
2022/01/30 16:55:19;;;;;;;;;;;;;;;;;;7388921;19;2193;-42
2022/01/30 16:57:47;;;;;;;;;;;;;;;;;;7388796;19;2255;-45
2022/01/30 17:00:20;;;;;;;;;;;;;;;;;;7388470;19;2167;-42
2022/01/30 17:02:49;;;;;;;;;;;;;;;;;;7388121;19;2345;-41
2022/01/30 17:05:20;;;;;;;;;;;;;;;;;;7388418;19;1729;-41
2022/01/30 17:07:47;;;;;;;;;;;;;;;;;;7388393;19;2337;-45
2022/01/30 17:10:18;;;;;;;;;;;;;;;;;;7387036;19;2335;-43
2022/01/30 17:15:24;;;;;;;;;;;;;;;;;;7387684;19;1689;-42
2022/01/30 17:17:51;;;;;;;;;;;;;;;;;;7388027;19;1877;-51
2022/01/30 17:20:19;;;;;;;;;;;;;;;;;;7388048;19;2320;-47
2022/01/30 17:23:06;;;;;;;;;;;;;;;;;;7387890;19;2366;-44
2022/01/30 17:25:34;;;;;;;;;;;;;;;;;;7388367;19;2226;-44
2022/01/30 17:28:05;;;;;;;;;;;;;;;;;;7388610;19;2215;-47
2022/01/30 17:30:32;;;;;;;;;;;;;;;;;;7393791;19;1853;-48
2022/01/30 17:32:59;;;;;;;;;;;;;;;;;;7394887;19;2274;-44
2022/01/30 17:35:29;;;;;;;;;;;;;;;;;;7395077;19;2372;-45
2022/01/30 17:37:56;;;;;;;;;;;;;;;;;;7395422;19;2383;-47
2022/01/30 17:40:24;;;;;;;;;;;;;;;;;;7395721;19;1902;-43
2022/01/30 17:42:51;;;;;;;;;;;;;;;;;;7394380;19;2230;-45
2022/01/30 17:45:26;;;;;;;;;;;;;;;;;;7394395;19;2467;-46
2022/01/30 17:47:57;;;;;;;;;;;;;;;;;;7394312;19;2246;-42
2022/01/30 17:50:24;;;;;;;;;;;;;;;;;;7394022;19;2346;-46
2022/01/30 17:52:51;;;;;;;;;;;;;;;;;;7394587;19;2247;-47
2022/01/30 17:55:19;;;;;;;;;;;;;;;;;;7394482;19;1997;-43
2022/01/30 17:57:47;;;;;;;;;;;;;;;;;;7393110;19;2265;-50
2022/01/30 18:00:15;;;;;;;;;;;;;;;;;;7394222;19;2111;-43
2022/01/30 18:02:43;;;;;;;;;;;;;;;;;;7394240;19;1340;-45
2022/01/30 18:05:12;;;;;;;;;;;;;;;;;;7393469;19;2339;-45
2022/01/30 18:07:41;;;;;;;;;;;;;;;;;;7394134;19;2429;-41
2022/01/30 18:10:11;;;;;;;;;;;;;;;;;;7390138;19;2084;-43
2022/01/30 18:12:38;;;;;;;;;;;;;;;;;;7396647;19;2168;-45
2022/01/30 18:15:06;;;;;;;;;;;;;;;;;;7394123;19;2205;-42
2022/01/30 18:17:34;;;;;;;;;;;;;;;;;;7392587;19;2005;-46
2022/01/30 18:20:02;;;;;;;;;;;;;;;;;;7397171;19;2387;-43
2022/01/30 18:22:29;;;;;;;;;;;;;;;;;;7392597;19;2195;-44
2022/01/30 18:24:59;;;;;;;;;;;;;;;;;;7392853;19;2108;-44
2022/01/30 18:27:26;;;;;;;;;;;;;;;;;;7392844;19;1976;-46
2022/01/30 18:29:53;;;;;;;;;;;;;;;;;;7392378;19;2052;-46
2022/01/30 18:32:21;;;;;;;;;;;;;;;;;;7390551;19;2150;-43
2022/01/30 18:34:49;;;;;;;;;;;;;;;;;;7392860;19;1971;-43
2022/01/30 18:37:23;;;;;;;;;;;;;;;;;;7391720;19;2214;-47
2022/01/30 18:39:59;;;;;;;;;;;;;;;;;;7388780;19;1809;-41
2022/01/30 18:42:30;;;;;;;;;;;;;;;;;;7392340;19;1944;-49
2022/01/30 18:44:58;;;;;;;;;;;;;;;;;;7391267;19;1786;-47
2022/01/30 18:47:26;;;;;;;;;;;;;;;;;;7392653;19;2314;-42
2022/01/30 18:49:53;;;;;;;;;;;;;;;;;;7393174;19;2253;-48
2022/01/30 18:52:20;;;;;;;;;;;;;;;;;;7389916;19;2231;-44